Time;durP1;ratioP1;P1;durP2;ratioP2;P2;SDS_P1;SDS_P2;PMS_P1;PMS_P2;Temp;Humidity;BMP_temperature;BMP_pressure;BME280_temperature;BME280_humidity;BME280_pressure;Samples;Min_cycle;Max_cycle;Signal;HPM_P1;HPM_P2
2022/12/19 00:01:45;;;;;;;0.80;0.73;;;;;;;0.96;100.00;101798.19;5094404;27;96788;-31
2022/12/19 00:04:14;;;;;;;1.08;0.77;;;;;;;0.98;100.00;101789.28;5093940;27;97918;-31
2022/12/19 00:06:39;;;;;;;0.32;0.32;;;;;;;0.99;100.00;101800.81;5075150;27;100967;-31
2022/12/19 00:09:05;;;;;;;0.08;0.08;;;;;;;1.01;100.00;101780.38;5094321;27;96592;-31
2022/12/19 00:11:31;;;;;;;0.32;0.25;;;;;;;1.02;100.00;101796.34;5093674;27;99212;-30
2022/12/19 00:13:57;;;;;;;0.63;0.63;;;;;;;1.02;100.00;101787.47;5074897;27;100603;-31
2022/12/19 00:16:25;;;;;;;0.55;0.43;;;;;;;1.02;100.00;101783.00;5075295;27;101101;-33
2022/12/19 00:18:52;;;;;;;0.10;0.10;;;;;;;1.05;100.00;101787.47;5074855;27;96944;-32
2022/12/19 00:21:20;;;;;;;0.32;0.32;;;;;;;1.09;100.00;101773.19;5075308;27;96943;-30
2022/12/19 00:23:46;;;;;;;0.43;0.22;;;;;;;1.11;100.00;101770.50;5074324;27;100592;-31
2022/12/19 00:26:18;;;;;;;0.25;0.25;;;;;;;1.11;100.00;101775.84;5074976;27;100914;-31
2022/12/19 00:28:47;;;;;;;0.85;0.55;;;;;;;1.10;100.00;101766.97;5075039;27;96895;-31
2022/12/19 00:31:14;;;;;;;0.50;0.50;;;;;;;1.17;100.00;101763.34;5074986;27;96851;-30
2022/12/19 00:33:40;;;;;;;0.95;0.80;;;;;;;1.20;100.00;101768.66;5093358;27;99546;-31
2022/12/19 00:36:09;;;;;;;0.65;0.35;;;;;;;1.26;100.00;101765.03;5074646;27;100778;-30
2022/12/19 00:38:35;;;;;;;0.88;0.70;;;;;;;1.27;100.00;101753.50;5074838;27;96561;-31
2022/12/19 00:41:14;;;;;;;0.47;0.45;;;;;;;1.28;100.00;101750.78;5093442;27;96793;-31
2022/12/19 00:43:40;;;;;;;0.52;0.52;;;;;;;1.32;100.00;101746.31;5074993;27;100722;-31
2022/12/19 00:46:08;;;;;;;0.22;0.20;;;;;;;1.35;100.00;101742.75;5074680;27;101058;-31
2022/12/19 00:48:34;;;;;;;0.10;0.05;;;;;;;1.34;100.00;101725.84;5074361;27;97025;-31
2022/12/19 00:51:09;;;;;;;0.13;0.13;;;;;;;1.39;100.00;101728.47;5074588;27;99207;-31
2022/12/19 00:53:34;;;;;;;0.52;0.32;;;;;;;1.38;100.00;101724.00;5074464;27;101282;-31
2022/12/19 00:56:02;;;;;;;0.55;0.38;;;;;;;1.43;100.00;101725.75;5095561;27;97458;-31
2022/12/19 00:58:28;;;;;;;0.65;0.65;;;;;;;1.43;100.00;101730.19;5078407;27;96674;-31
2022/12/19 01:00:53;;;;;;;2.05;1.02;;;;;;;1.46;100.00;101719.50;5078261;27;96902;-31
2022/12/19 01:03:19;;;;;;;0.68;0.60;;;;;;;1.49;100.00;101716.78;5096928;27;98018;-31
2022/12/19 01:05:44;;;;;;;0.50;0.50;;;;;;;1.48;100.00;101707.03;5097059;27;96703;-31
2022/12/19 01:08:09;;;;;;;0.55;0.35;;;;;;;1.52;100.00;101706.06;5096410;27;97692;-31
2022/12/19 01:10:35;;;;;;;0.10;0.10;;;;;;;1.55;100.00;101714.06;5096723;27;98082;-33
2022/12/19 01:13:00;;;;;;;0.68;0.68;;;;;;;1.55;100.00;101707.81;5096368;27;97486;-31
2022/12/19 01:15:25;;;;;;;0.47;0.43;;;;;;;1.60;100.00;101711.38;5096556;27;97839;-31
2022/12/19 01:17:51;;;;;;;0.50;0.22;;;;;;;1.58;100.00;101707.81;5096455;27;96457;-31
2022/12/19 01:20:19;;;;;;;0.98;0.52;;;;;;;1.61;100.00;101705.09;5096649;27;96864;-31
2022/12/19 01:22:44;;;;;;;0.47;0.47;;;;;;;1.64;100.00;101697.06;5077636;27;101294;-31
2022/12/19 01:25:10;;;;;;;0.25;0.25;;;;;;;1.65;100.00;101696.16;5095685;27;99350;-31
2022/12/19 01:27:36;;;;;;;0.35;0.35;;;;;;;1.66;100.00;101687.25;5077601;27;96699;-31
2022/12/19 01:30:02;;;;;;;0.35;0.35;;;;;;;1.67;100.00;101697.91;5097079;27;96757;-31
2022/12/19 01:32:27;;;;;;;0.32;0.30;;;;;;;1.69;100.00;101693.44;5077752;27;101060;-31
2022/12/19 01:34:52;;;;;;;0.50;0.50;;;;;;;1.69;100.00;101685.44;5096248;27;97877;-31
2022/12/19 01:37:18;;;;;;;0.35;0.10;;;;;;;1.74;100.00;101682.72;5095861;27;96445;-31
2022/12/19 01:39:44;;;;;;;0.93;0.50;;;;;;;1.77;100.00;101688.00;5096442;27;96797;-31
2022/12/19 01:42:21;;;;;;;0.25;0.25;;;;;;;1.79;100.00;101688.88;5096017;27;99385;-32
2022/12/19 01:45:08;;;;;;;0.35;0.20;;;;;;;1.82;100.00;101695.97;5077342;27;100891;-32
2022/12/19 01:48:06;;;;;;;0.20;0.20;;;;;;;1.85;100.00;101686.13;5096395;27;96485;-31
2022/12/19 01:50:40;;;;;;;0.10;0.10;;;;;;;1.87;100.00;101672.75;5077562;27;96768;-32
2022/12/19 01:53:09;;;;;;;0.28;0.10;;;;;;;1.91;100.00;101675.38;5077227;27;100839;-31
2022/12/19 01:55:37;;;;;;;0.90;0.60;;;;;;;1.93;100.00;101661.97;5077556;27;100799;-32
2022/12/19 01:58:02;;;;;;;0.30;0.30;;;;;;;2.02;100.00;101664.53;5077315;27;96779;-32
2022/12/19 02:00:28;;;;;;;0.55;0.50;;;;;;;2.03;100.00;101658.31;5077342;27;96906;-31
2022/12/19 02:03:02;;;;;;;0.45;0.43;;;;;;;2.05;100.00;101648.50;5095443;27;97900;-31
2022/12/19 02:05:28;;;;;;;0.30;0.30;;;;;;;2.08;100.00;101645.75;5077084;27;101452;-31
2022/12/19 02:07:54;;;;;;;0.65;0.65;;;;;;;2.11;100.00;101650.19;5076114;27;96682;-31
2022/12/19 02:10:19;;;;;;;0.50;0.50;;;;;;;2.11;100.00;101640.38;5095646;27;96519;-31
2022/12/19 02:12:45;;;;;;;1.27;0.57;;;;;;;2.15;100.00;101635.88;5095544;27;97999;-31
2022/12/19 02:15:13;;;;;;;0.45;0.32;;;;;;;2.20;100.00;101635.81;5076943;27;101237;-32
2022/12/19 02:18:03;;;;;;;1.05;0.70;;;;;;;2.23;100.00;101622.41;5077104;27;96816;-31
2022/12/19 02:20:59;;;;;;;0.17;0.17;;;;;;;2.24;100.00;101619.72;5077155;27;96726;-31
2022/12/19 02:23:45;;;;;;;0.30;0.28;;;;;;;2.30;100.00;101621.41;5076900;27;101237;-31
2022/12/19 02:26:38;;;;;;;0.15;0.10;;;;;;;2.33;100.00;101607.97;5076515;27;100818;-31
2022/12/19 02:29:12;;;;;;;0.73;0.50;;;;;;;2.36;100.00;101604.38;5095141;27;96477;-31
2022/12/19 02:31:48;;;;;;;0.17;0.17;;;;;;;2.38;100.00;101597.22;5076506;27;96686;-30
2022/12/19 02:34:49;;;;;;;0.03;0.03;;;;;;;2.42;100.00;101593.59;5076689;27;101263;-30
2022/12/19 02:37:26;;;;;;;0.30;0.30;;;;;;;2.46;100.00;101596.22;5076657;27;100748;-31
2022/12/19 02:40:13;;;;;;;0.15;0.15;;;;;;;2.51;100.00;101586.31;5076627;27;96861;-31
2022/12/19 02:42:44;;;;;;;0.45;0.43;;;;;;;2.55;100.00;101592.47;5095122;27;96870;-31
2022/12/19 02:45:13;;;;;;;0.70;0.32;;;;;;;2.59;100.00;101591.53;5076385;27;100948;-31
2022/12/19 02:47:39;;;;;;;0.63;0.30;;;;;;;2.61;100.00;101576.34;5076754;27;101224;-31
2022/12/19 02:50:06;;;;;;;0.40;0.38;;;;;;;2.65;100.00;101571.84;5076623;27;96772;-31
2022/12/19 02:52:31;;;;;;;0.30;0.30;;;;;;;2.67;100.00;101576.25;5076378;27;96949;-31
2022/12/19 02:55:03;;;;;;;1.27;0.57;;;;;;;2.69;100.00;101573.53;5094704;27;98025;-31
2022/12/19 02:58:08;;;;;;;0.60;0.60;;;;;;;2.73;100.00;101570.78;5076281;27;101095;-30
2022/12/19 03:00:45;;;;;;;0.40;0.40;;;;;;;2.78;100.00;101569.81;5095153;27;96472;-31
2022/12/19 03:03:51;;;;;;;0.10;0.10;;;;;;;2.79;100.00;101567.13;5076386;27;96819;-31
2022/12/19 03:06:25;;;;;;;0.60;0.40;;;;;;;2.82;100.00;101566.19;5040935;27;100873;-31
2022/12/19 03:09:02;;;;;;;0.30;0.30;;;;;;;2.84;100.00;101557.22;5076152;27;100931;-33
2022/12/19 03:11:34;;;;;;;0.70;0.57;;;;;;;2.87;100.00;101561.63;5094993;27;96484;-31
2022/12/19 03:14:06;;;;;;;0.52;0.52;;;;;;;2.89;100.00;101555.34;5076678;27;96764;-31
2022/12/19 03:16:33;;;;;;;;;;;;;;;2.94;100.00;101564.16;5095388;27;98040;-31
2022/12/19 03:18:58;;;;;;;0.43;0.43;;;;;;;2.95;100.00;101559.69;5094201;27;97834;-31
2022/12/19 03:21:40;;;;;;;0.32;0.25;;;;;;;2.97;100.00;101550.72;5094216;27;96483;-30
2022/12/19 03:24:08;;;;;;;;;;;;;;;3.01;100.00;101558.72;5075715;27;96853;-31
2022/12/19 03:26:41;;;;;;;0.20;0.20;;;;;;;3.02;100.00;101547.09;5075930;27;100554;-32
2022/12/19 03:29:18;;;;;;;0.30;0.30;;;;;;;3.06;100.00;101543.44;5094428;27;99187;-31
2022/12/19 03:31:45;;;;;;;0.95;0.65;;;;;;;3.08;100.00;101537.16;5094723;27;96533;-31
2022/12/19 03:34:31;;;;;;;0.68;0.43;;;;;;;3.13;100.00;101535.25;5094349;27;96742;-31
2022/12/19 03:37:02;;;;;;;0.10;0.08;;;;;;;3.17;100.00;101549.44;5094210;27;99646;-31
2022/12/19 03:39:30;;;;;;;0.43;0.25;;;;;;;3.22;100.00;101550.28;5076176;27;101069;-31
2022/12/19 03:44:42;;;;;;;0.57;0.57;;;;;;;3.29;100.00;101556.34;5094602;27;96706;-30
2022/12/19 03:47:21;;;;;;;0.30;0.30;;;;;;;3.31;100.00;101551.84;5093737;27;98256;-31
2022/12/19 03:49:47;;;;;;;0.43;0.43;;;;;;;3.33;100.00;101539.31;5094349;27;97392;-32
2022/12/19 03:52:24;;;;;;;0.32;0.17;;;;;;;3.40;100.00;101549.88;5075639;27;96628;-30
2022/12/19 03:55:35;;;;;;;0.45;0.45;;;;;;;3.46;100.00;101545.34;5075591;27;96721;-32
2022/12/19 03:58:10;;;;;;;0.57;0.50;;;;;;;3.52;100.00;101537.16;5075225;27;101455;-31
2022/12/19 04:00:39;;;;;;;0.08;0.08;;;;;;;3.53;100.00;101521.06;5075298;27;99947;-31
2022/12/19 04:03:07;;;;;;;0.55;0.22;;;;;;;3.58;100.00;101524.50;5075239;27;96497;-30
2022/12/19 04:05:33;;;;;;;0.35;0.32;;;;;;;3.63;100.00;101527.09;5075626;27;96701;-30
2022/12/19 04:08:03;;;;;;;1.13;0.68;;;;;;;3.66;100.00;101512.75;5093736;27;99031;-32
2022/12/19 04:10:29;;;;;;;0.90;0.57;;;;;;;3.74;100.00;101525.06;5075184;27;102040;-31
2022/12/19 04:13:01;;;;;;;0.77;0.43;;;;;;;3.77;100.00;101530.34;5074835;27;96971;-32
2022/12/19 04:15:49;;;;;;;0.60;0.60;;;;;;;3.84;100.00;101528.41;5075534;27;96809;-30
2022/12/19 04:18:17;;;;;;;0.28;0.28;;;;;;;3.87;100.00;101525.66;5075050;27;101382;-31
2022/12/19 04:20:53;;;;;;;0.25;0.25;;;;;;;3.93;100.00;101527.31;5074799;27;99583;-31
2022/12/19 04:23:34;;;;;;;0.30;0.25;;;;;;;3.99;100.00;101525.38;5094259;27;96643;-31
2022/12/19 04:26:02;;;;;;;1.38;0.50;;;;;;;4.04;100.00;101522.59;5074707;27;96986;-31
2022/12/19 04:28:47;;;;;;;0.77;0.40;;;;;;;4.10;100.00;101532.28;5074603;27;101569;-30
2022/12/19 04:31:15;;;;;;;2.17;0.73;;;;;;;4.15;100.00;101530.38;5074329;27;101023;-32
2022/12/19 04:33:40;;;;;;;0.40;0.40;;;;;;;4.20;100.00;101518.63;5093515;27;96569;-31
2022/12/19 04:36:06;;;;;;;0.80;0.57;;;;;;;4.24;100.00;101524.78;5093741;27;96728;-31
2022/12/19 04:38:31;;;;;;;0.50;0.30;;;;;;;4.27;100.00;101519.38;5093052;27;97939;-32
2022/12/19 04:40:57;;;;;;;0.80;0.63;;;;;;;4.36;100.00;101512.88;5093398;27;98166;-30
2022/12/19 04:43:22;;;;;;;0.40;0.28;;;;;;;4.40;100.00;101511.88;5075023;27;96665;-31
2022/12/19 04:45:47;;;;;;;0.47;0.45;;;;;;;4.44;100.00;101517.13;5093164;27;96870;-30
2022/12/19 04:48:13;;;;;;;0.25;0.22;;;;;;;4.47;100.00;101517.03;5093405;27;97497;-31
2022/12/19 04:50:38;;;;;;;1.08;0.50;;;;;;;4.53;100.00;101510.66;5093114;27;98693;-31
2022/12/19 04:53:04;;;;;;;1.05;0.68;;;;;;;4.58;100.00;101515.91;5093409;27;96598;-31
2022/12/19 04:55:29;;;;;;;0.43;0.43;;;;;;;4.58;100.00;101518.59;5093594;27;96801;-31
2022/12/19 04:57:55;;;;;;;0.93;0.73;;;;;;;4.61;100.00;101510.44;5093310;27;98546;-31
2022/12/19 05:00:20;;;;;;;0.45;0.45;;;;;;;4.63;100.00;101506.81;5093162;27;97880;-31
2022/12/19 05:02:45;;;;;;;0.47;0.38;;;;;;;4.66;100.00;101503.16;5092777;27;96472;-31
2022/12/19 05:05:11;;;;;;;0.60;0.47;;;;;;;4.72;100.00;101508.38;5093225;27;96794;-31
2022/12/19 05:07:36;;;;;;;1.00;0.77;;;;;;;4.73;100.00;101507.44;5092936;27;99317;-31
2022/12/19 05:10:02;;;;;;;0.95;0.68;;;;;;;4.76;100.00;101495.75;5092697;27;100519;-31
2022/12/19 05:12:28;;;;;;;0.85;0.70;;;;;;;4.78;100.00;101500.13;5074593;27;96699;-31
2022/12/19 05:14:53;;;;;;;0.50;0.22;;;;;;;4.81;100.00;101485.75;5093309;27;96748;-31
2022/12/19 05:17:19;;;;;;;0.98;0.68;;;;;;;4.83;100.00;101489.28;5093067;27;98074;-31
2022/12/19 05:19:44;;;;;;;1.48;0.75;;;;;;;4.87;100.00;101483.78;5093197;27;100358;-31
2022/12/19 05:22:09;;;;;;;0.80;0.55;;;;;;;4.91;100.00;101495.34;5093413;27;96426;-31
2022/12/19 05:24:35;;;;;;;1.83;1.00;;;;;;;4.92;100.00;101483.66;5092200;27;96835;-30
2022/12/19 05:27:00;;;;;;;1.30;0.77;;;;;;;4.96;100.00;101484.44;5092038;27;102362;-31
2022/12/19 05:29:25;;;;;;;2.17;1.10;;;;;;;4.97;100.00;101476.34;5092701;27;107622;-31
2022/12/19 05:31:51;;;;;;;2.22;1.20;;;;;;;5.01;100.00;101494.16;5093070;27;96414;-31
2022/12/19 05:34:16;;;;;;;0.47;0.43;;;;;;;5.01;100.00;101485.22;5092826;27;96769;-31
2022/12/19 05:36:42;;;;;;;0.82;0.70;;;;;;;5.04;100.00;101496.75;5092488;27;106603;-31
2022/12/19 05:39:07;;;;;;;0.75;0.73;;;;;;;5.04;100.00;101490.50;5092473;27;99116;-31
2022/12/19 05:41:32;;;;;;;0.50;0.45;;;;;;;5.08;100.00;101500.22;5094228;27;96650;-31
2022/12/19 05:43:58;;;;;;;1.92;1.17;;;;;;;5.08;100.00;101501.09;5096433;27;96487;-31
2022/12/19 05:46:24;;;;;;;1.48;1.10;;;;;;;5.11;100.00;101489.41;5096160;27;98129;-30
2022/12/19 05:48:49;;;;;;;1.42;0.82;;;;;;;5.14;100.00;101485.75;5095944;27;98755;-31
2022/12/19 05:51:14;;;;;;;1.77;1.30;;;;;;;5.19;100.00;101494.53;5095767;27;96799;-32
2022/12/19 05:53:40;;;;;;;1.83;1.25;;;;;;;5.24;100.00;101484.53;5095993;27;96765;-31
2022/12/19 05:56:12;;;;;;;1.25;0.68;;;;;;;5.26;100.00;101485.38;5095715;27;99621;-30
2022/12/19 05:58:39;;;;;;;1.80;0.88;;;;;;;5.27;100.00;101490.72;5077142;27;100698;-31
2022/12/19 06:01:17;;;;;;;0.95;0.82;;;;;;;5.30;100.00;101493.31;5077303;27;96493;-31
2022/12/19 06:03:42;;;;;;;1.40;1.08;;;;;;;5.28;100.00;101496.97;5096319;27;96499;-33
2022/12/19 06:06:11;;;;;;;1.73;1.00;;;;;;;5.31;100.00;101491.50;5076877;27;100794;-30
2022/12/19 06:08:37;;;;;;;1.67;1.23;;;;;;;5.35;100.00;101506.59;5077505;27;101107;-31
2022/12/19 06:11:04;;;;;;;1.17;1.00;;;;;;;5.35;100.00;101501.22;5095763;27;96715;-30
2022/12/19 06:13:29;;;;;;;3.38;1.45;;;;;;;5.39;100.00;101505.59;5077237;27;96950;-31
2022/12/19 06:15:59;;;;;;;2.53;1.75;;;;;;;5.42;100.00;101505.50;5095093;27;99334;-30
2022/12/19 06:18:25;;;;;;;2.75;1.92;;;;;;;5.43;100.00;101495.63;5076952;27;101574;-31
2022/12/19 06:20:58;;;;;;;1.75;0.95;;;;;;;5.44;100.00;101498.28;5076956;27;97093;-31
2022/12/19 06:23:24;;;;;;;1.58;0.77;;;;;;;5.48;100.00;101493.66;5095859;27;96760;-31
2022/12/19 06:25:49;;;;;;;1.50;1.10;;;;;;;5.47;100.00;101484.75;5095102;27;98008;-31
2022/12/19 06:28:14;;;;;;;3.42;1.40;;;;;;;5.52;100.00;101484.59;5095493;27;97822;-31
2022/12/19 06:30:40;;;;;;;2.20;1.40;;;;;;;5.54;100.00;101482.75;5095742;27;96509;-31
2022/12/19 06:33:05;;;;;;;2.45;1.48;;;;;;;5.58;100.00;101480.84;5095496;27;96822;-31
2022/12/19 06:35:30;;;;;;;1.92;1.15;;;;;;;5.60;100.00;101479.91;5095365;27;106619;-30
2022/12/19 06:37:55;;;;;;;3.00;1.67;;;;;;;5.63;100.00;101495.03;5095132;27;99151;-31
2022/12/19 06:43:05;;;;;;;1.45;0.93;;;;;;;5.70;100.00;101496.63;5080431;27;96708;-30
2022/12/19 06:45:30;;;;;;;1.75;1.10;;;;;;;5.68;100.00;101485.91;5095051;27;97660;-32
2022/12/19 06:47:56;;;;;;;4.43;2.53;;;;;;;5.71;100.00;101492.97;5094875;27;99124;-31
2022/12/19 06:50:21;;;;;;;4.03;1.45;;;;;;;5.71;100.00;101496.53;5095255;27;96573;-30
2022/12/19 06:52:46;;;;;;;1.27;1.00;;;;;;;5.73;100.00;101489.31;5094488;27;96787;-31
2022/12/19 06:55:12;;;;;;;1.52;1.13;;;;;;;5.77;100.00;101492.81;5094916;27;97738;-31
2022/12/19 06:57:44;;;;;;;2.97;1.95;;;;;;;5.80;100.00;101492.69;5095430;27;97951;-31
2022/12/19 07:00:13;;;;;;;1.92;1.48;;;;;;;5.78;100.00;101493.69;5094768;27;96622;-30
2022/12/19 07:02:44;;;;;;;2.45;1.50;;;;;;;5.84;100.00;101493.47;5076441;27;96981;-31
2022/12/19 07:05:11;;;;;;;1.02;0.82;;;;;;;5.88;100.00;101500.50;5094072;27;99510;-31
2022/12/19 07:07:37;;;;;;;4.40;1.70;;;;;;;5.91;100.00;101498.63;5076198;27;101179;-31
2022/12/19 07:10:03;;;;;;;1.85;1.30;;;;;;;5.96;100.00;101498.50;5094636;27;96674;-31
2022/12/19 07:12:29;;;;;;;1.42;1.05;;;;;;;5.95;100.00;101500.31;5076266;27;98039;-32
2022/12/19 07:14:54;;;;;;;1.77;0.82;;;;;;;5.98;100.00;101493.06;5094333;27;99262;-31
2022/12/19 07:17:22;;;;;;;1.15;0.98;;;;;;;6.01;100.00;101501.06;5094533;27;106921;-32
2022/12/19 07:19:54;;;;;;;2.60;1.60;;;;;;;6.02;100.00;101508.19;5094783;27;96787;-31
2022/12/19 07:22:21;;;;;;;1.58;1.23;;;;;;;6.03;100.00;101510.84;5076514;27;96914;-31
2022/12/19 07:24:46;;;;;;;1.73;1.40;;;;;;;6.04;100.00;101511.72;5075183;27;101113;-31
2022/12/19 07:27:12;;;;;;;5.60;2.53;;;;;;;6.08;100.00;101511.56;5093991;27;99209;-31
2022/12/19 07:29:37;;;;;;;8.07;2.10;;;;;;;6.08;100.00;101516.94;5094003;27;96556;-31
2022/12/19 07:32:02;;;;;;;3.15;1.38;;;;;;;6.12;100.00;101520.41;5094589;27;96775;-31
2022/12/19 07:34:28;;;;;;;2.45;1.50;;;;;;;6.11;100.00;101518.66;5094342;27;97759;-31
2022/12/19 07:36:54;;;;;;;2.15;1.48;;;;;;;6.10;100.00;101523.16;5075753;27;100911;-31
2022/12/19 07:39:20;;;;;;;0.82;0.82;;;;;;;6.16;100.00;101519.38;5094404;27;97052;-31
2022/12/19 07:41:46;;;;;;;2.70;1.98;;;;;;;6.17;100.00;101523.81;5094315;27;96833;-31
2022/12/19 07:44:12;;;;;;;4.53;1.35;;;;;;;6.17;100.00;101521.13;5094040;27;99252;-31
2022/12/19 07:46:38;;;;;;;3.25;1.67;;;;;;;6.22;100.00;101529.94;5094457;27;99372;-30
2022/12/19 07:49:03;;;;;;;4.25;2.40;;;;;;;6.22;100.00;101537.13;5094117;27;96509;-30
2022/12/19 07:51:29;;;;;;;3.22;1.63;;;;;;;6.25;100.00;101543.28;5094471;27;96928;-31
2022/12/19 07:53:54;;;;;;;2.97;1.85;;;;;;;6.26;100.00;101539.66;5093851;27;97438;-31
2022/12/19 07:56:20;;;;;;;2.60;1.48;;;;;;;6.26;100.00;101547.72;5094080;27;97568;-30
2022/12/19 07:58:45;;;;;;;6.10;2.03;;;;;;;6.27;100.00;101543.22;5094009;27;96745;-32
2022/12/19 08:01:13;;;;;;;2.85;1.40;;;;;;;6.27;100.00;101554.88;5093608;27;96863;-31
2022/12/19 08:03:38;;;;;;;4.28;2.17;;;;;;;6.25;100.00;101554.06;5075189;27;100989;-31
2022/12/19 08:06:05;;;;;;;4.78;1.95;;;;;;;6.26;100.00;101552.22;5092233;27;97804;-31
2022/12/19 08:08:31;;;;;;;5.75;2.45;;;;;;;6.28;100.00;101553.94;5075345;27;96543;-30
2022/12/19 08:11:17;;;;;;;4.47;2.03;;;;;;;6.28;100.00;101553.94;5075581;27;96932;-31
2022/12/19 08:13:44;;;;;;;2.47;1.70;;;;;;;6.25;100.00;101554.06;5075120;27;100914;-31
2022/12/19 08:16:10;;;;;;;2.72;1.80;;;;;;;6.28;100.00;101558.44;5075077;27;100984;-31
2022/12/19 08:18:35;;;;;;;1.45;1.20;;;;;;;6.29;100.00;101557.50;5091685;27;96707;-33
2022/12/19 08:21:01;;;;;;;2.20;1.02;;;;;;;6.31;100.00;101561.03;5091718;27;96809;-34
2022/12/19 08:23:26;;;;;;;1.45;0.95;;;;;;;6.30;100.00;101557.47;5091138;27;97956;-31
2022/12/19 08:26:03;;;;;;;3.75;1.77;;;;;;;6.31;100.00;101563.72;5090641;27;97877;-31
2022/12/19 08:28:30;;;;;;;1.35;1.10;;;;;;;6.34;100.00;101563.63;5072300;27;97094;-33
2022/12/19 08:30:56;;;;;;;3.13;1.58;;;;;;;6.32;100.00;101555.63;5072449;27;97115;-31
2022/12/19 08:33:21;;;;;;;5.50;1.90;;;;;;;6.31;100.00;101566.41;5091987;27;98064;-31
2022/12/19 08:35:47;;;;;;;3.47;1.70;;;;;;;6.32;100.00;101566.38;5093958;27;98140;-30
2022/12/19 08:38:12;;;;;;;1.98;1.42;;;;;;;6.32;100.00;101566.38;5093732;27;96615;-31
2022/12/19 08:40:38;;;;;;;2.78;1.35;;;;;;;6.32;100.00;101562.81;5093401;27;100943;-31
2022/12/19 08:43:03;;;;;;;4.22;2.03;;;;;;;6.33;100.00;101561.88;5092616;27;99239;-31
2022/12/19 08:45:28;;;;;;;3.25;2.05;;;;;;;6.33;100.00;101568.13;5093128;27;106627;-30
2022/12/19 08:47:54;;;;;;;4.18;2.55;;;;;;;6.35;100.00;101562.69;5093390;27;96465;-31
2022/12/19 08:50:19;;;;;;;2.92;1.88;;;;;;;6.32;100.00;101571.75;5093424;27;96746;-30
2022/12/19 08:52:44;;;;;;;3.80;2.78;;;;;;;6.33;100.00;101573.50;5093083;27;99436;-30
2022/12/19 08:55:10;;;;;;;2.92;1.70;;;;;;;6.34;100.00;101563.63;5093467;27;97779;-32
2022/12/19 08:57:35;;;;;;;6.35;1.83;;;;;;;6.36;100.00;101562.66;5093521;27;96489;-30
2022/12/19 09:00:03;;;;;;;1.83;1.23;;;;;;;6.34;100.00;101561.81;5093613;27;96758;-31
2022/12/19 09:02:29;;;;;;;3.90;1.65;;;;;;;6.38;100.00;101566.16;5074528;27;100835;-30
2022/12/19 09:04:54;;;;;;;3.00;1.63;;;;;;;6.41;100.00;101564.31;5093094;27;97835;-30
2022/12/19 09:07:19;;;;;;;3.83;2.55;;;;;;;6.37;100.00;101558.16;5092309;27;104000;-31
2022/12/19 09:09:45;;;;;;;8.32;2.10;;;;;;;6.38;100.00;101568.84;5092971;27;96867;-31
2022/12/19 09:12:12;;;;;;;3.65;2.40;;;;;;;6.40;100.00;101567.94;5093167;27;97953;-32
2022/12/19 09:14:37;;;;;;;3.20;2.28;;;;;;;6.41;100.00;101564.31;5074169;27;100781;-30
2022/12/19 09:17:03;;;;;;;4.18;1.92;;;;;;;6.40;100.00;101567.94;5095364;27;96490;-32
2022/12/19 09:19:28;;;;;;;5.85;2.63;;;;;;;6.44;100.00;101578.56;5096556;27;96779;-31
2022/12/19 09:21:53;;;;;;;2.22;1.75;;;;;;;6.44;100.00;101575.00;5096449;27;97690;-31
2022/12/19 09:24:19;;;;;;;3.97;2.33;;;;;;;6.45;100.00;101579.44;5096242;27;99597;-31
2022/12/19 09:26:44;;;;;;;4.43;2.53;;;;;;;6.47;100.00;101581.13;5096578;27;96486;-31
2022/12/19 09:29:10;;;;;;;6.70;2.72;;;;;;;6.46;100.00;101581.16;5096329;27;96726;-31
2022/12/19 09:31:36;;;;;;;7.75;3.60;;;;;;;6.50;100.00;101580.16;5077285;27;100644;-31
2022/12/19 09:34:01;;;;;;;4.07;2.53;;;;;;;6.50;100.00;101575.63;5096115;27;99117;-31
2022/12/19 09:36:27;;;;;;;5.32;2.75;;;;;;;6.53;100.00;101585.41;5096076;27;96684;-31
2022/12/19 09:38:54;;;;;;;8.40;2.15;;;;;;;6.53;100.00;101588.13;5096423;27;96748;-30
2022/12/19 09:41:47;;;;;;;10.35;3.58;;;;;;;6.56;100.00;101590.72;5077420;27;98896;-31
2022/12/19 09:44:21;;;;;;;3.78;2.28;;;;;;;6.57;100.00;101590.66;5096058;27;97892;-30
2022/12/19 09:46:59;;;;;;;8.77;4.10;;;;;;;6.62;100.00;101595.00;5077691;27;96845;-31
2022/12/19 09:49:31;;;;;;;3.08;1.77;;;;;;;6.61;100.00;101583.38;5096579;27;96805;-30
2022/12/19 09:52:01;;;;;;;6.70;4.25;;;;;;;6.68;100.00;101592.13;5077469;27;100831;-30
2022/12/19 09:54:37;;;;;;;7.10;3.33;;;;;;;6.68;100.00;101594.81;5077476;27;101044;-31
2022/12/19 09:57:13;;;;;;;9.43;3.45;;;;;;;6.69;100.00;101581.28;5096179;27;96517;-30
2022/12/19 09:59:45;;;;;;;7.75;4.43;;;;;;;6.68;100.00;101590.31;5077234;27;96981;-32
2022/12/19 10:02:21;;;;;;;8.50;3.40;;;;;;;6.74;100.00;101591.91;5077331;27;101359;-32
2022/12/19 10:04:50;;;;;;;5.22;2.90;;;;;;;6.73;100.00;101592.84;5077038;27;100758;-31
2022/12/19 10:07:17;;;;;;;7.97;3.35;;;;;;;6.76;100.00;101595.44;5077196;27;96576;-31
2022/12/19 10:09:43;;;;;;;6.07;2.70;;;;;;;6.75;100.00;101597.25;5077181;27;96838;-31
2022/12/19 10:12:51;;;;;;;7.20;3.60;;;;;;;6.76;100.00;101601.69;5096019;27;97359;-30
2022/12/19 10:15:36;;;;;;;7.88;3.47;;;;;;;6.76;100.00;101593.63;5077326;27;101257;-31
2022/12/19 10:18:23;;;;;;;5.82;2.60;;;;;;;6.77;100.00;101598.09;5077031;27;96592;-31
2022/12/19 10:21:01;;;;;;;4.68;2.10;;;;;;;6.76;100.00;101587.34;5095547;27;96637;-31
2022/12/19 10:23:45;;;;;;;5.93;3.60;;;;;;;6.80;100.00;101600.66;5076574;27;101370;-30
2022/12/19 10:26:26;;;;;;;7.43;4.35;;;;;;;6.79;100.00;101581.88;5094933;27;99212;-31
2022/12/19 10:29:26;;;;;;;9.85;3.30;;;;;;;6.84;100.00;101608.63;5094601;27;96658;-30
2022/12/19 10:32:23;;;;;;;8.68;3.15;;;;;;;6.86;100.00;101599.56;5095696;27;96644;-30
2022/12/19 10:34:50;;;;;;;5.40;2.90;;;;;;;6.91;100.00;101602.09;5076539;27;100973;-30
2022/12/19 10:37:26;;;;;;;5.28;2.72;;;;;;;6.93;100.00;101601.13;5076669;27;100872;-32
2022/12/19 10:40:09;;;;;;;8.63;3.55;;;;;;;6.97;100.00;101591.13;5095399;27;96528;-31
2022/12/19 10:42:53;;;;;;;4.22;2.35;;;;;;;6.97;100.00;101589.31;5077319;27;96755;-31
2022/12/19 10:45:21;;;;;;;4.07;2.28;;;;;;;6.99;100.00;101574.00;5076288;27;100801;-31
2022/12/19 10:47:49;;;;;;;5.78;3.17;;;;;;;7.05;100.00;101583.66;5076455;27;101399;-30
2022/12/19 10:50:20;;;;;;;5.82;2.92;;;;;;;7.09;100.00;101577.22;5076136;27;97055;-30
2022/12/19 10:52:46;;;;;;;7.60;3.53;;;;;;;7.11;100.00;101580.75;5076567;27;96628;-31
2022/12/19 10:55:44;;;;;;;7.95;3.05;;;;;;;7.15;100.00;101565.34;5094860;27;99310;-31
2022/12/19 10:58:33;;;;;;;6.38;2.88;;;;;;;7.14;100.00;101564.47;5056735;27;101480;-31
2022/12/19 11:01:12;;;;;;;8.07;3.58;;;;;;;7.17;100.00;101561.66;5076491;27;96784;-30
2022/12/19 11:03:40;;;;;;;5.28;3.22;;;;;;;7.18;100.00;101571.53;5076559;27;96687;-30
2022/12/19 11:06:40;;;;;;;5.97;3.60;;;;;;;7.19;100.00;101573.28;5094553;27;98074;-31
2022/12/19 11:09:38;;;;;;;7.90;2.67;;;;;;;7.22;100.00;101583.97;5076480;27;101706;-30
2022/12/19 11:12:06;;;;;;;9.80;3.25;;;;;;;7.23;100.00;101585.72;5093923;27;96657;-32
2022/12/19 11:14:35;;;;;;;3.83;2.30;;;;;;;7.20;100.00;101580.44;5094621;27;96838;-31
2022/12/19 11:17:01;;;;;;;14.68;3.78;;;;;;;7.21;100.00;101570.53;5075438;27;101476;-31
2022/12/19 11:19:33;;;;;;;6.30;3.00;;;;;;;7.22;100.00;101577.66;5075785;27;100835;-31
2022/12/19 11:22:03;;;;;;;8.68;2.60;;;;;;;7.26;100.00;101581.16;5076107;27;96764;-31
2022/12/19 11:24:34;;;;;;;4.03;2.20;;;;;;;7.26;100.00;101578.44;5094200;27;96735;-31
2022/12/19 11:27:00;;;;;;;4.13;2.50;;;;;;;7.26;100.00;101581.16;5075420;27;101434;-30
2022/12/19 11:29:28;;;;;;;9.43;2.90;;;;;;;7.28;100.00;101574.75;5075826;27;99685;-30
2022/12/19 11:32:01;;;;;;;6.47;2.63;;;;;;;7.29;100.00;101583.72;5094800;27;96770;-31
2022/12/19 11:34:29;;;;;;;5.38;2.33;;;;;;;7.30;100.00;101577.41;5094826;27;96881;-31
2022/12/19 11:37:02;;;;;;;4.95;2.35;;;;;;;7.30;100.00;101548.66;5075619;27;101119;-31
2022/12/19 11:39:35;;;;;;;4.95;2.47;;;;;;;7.35;100.00;101570.91;5075380;27;100902;-30
2022/12/19 11:42:23;;;;;;;3.72;2.30;;;;;;;7.40;100.00;101558.13;5075312;27;99437;-30
2022/12/19 11:45:34;;;;;;;5.80;2.47;;;;;;;7.43;100.00;101562.53;5075601;27;96991;-32